Wilber, Nebraska
Current Conditions -  °F | °C
As of 6:15 AM on Thursday 29 Jan 2015 (Local Time) from KBIE Reporting Station
Overcast Overcast  
Wind Chill: 25°   Ceiling: 2600
Heat Index: 38°   Visibility: 10mi
Dew Point: 29°   Wind: 30mph
Humidity: 71%   Direction: 340°NNW
Pressure: 30.24"   Gusts: 40mph
Location:  40.48°N, 96.96°W
Report Text: KBIE 291215Z AUTO 34026G35KT 10SM OVC026 03/M02 A3024 RMK AO2 T00321016
Loading
Personal Weather Stations






























Interactive Weather Map New forecast layout! Learn more

10-Day Weather Forecast

Advertisements
Track Severe Weather on mobile